Time;durP1;ratioP1;P1;durP2;ratioP2;P2;SDS_P1;SDS_P2;PMS_P1;PMS_P2;Temp;Humidity;BMP_temperature;BMP_pressure;BME280_temperature;BME280_humidity;BME280_pressure;Samples;Min_cycle;Max_cycle;Signal;HPM_P1;HPM_P2
2023/12/15 00:01:15;;;;;;;3.73;3.33;;;;;;;5.23;100.00;98227.97;6268956;28;20240;-51
2023/12/15 00:04:17;;;;;;;3.57;3.20;;;;;;;5.22;100.00;98229.00;6246493;28;20323;-49
2023/12/15 00:07:20;;;;;;;4.20;3.07;;;;;;;5.17;100.00;98239.28;6269189;28;20192;-49
2023/12/15 00:10:22;;;;;;;4.27;3.47;;;;;;;5.11;100.00;98248.00;6249726;28;20223;-50
2023/12/15 00:13:24;;;;;;;3.00;2.80;;;;;;;5.08;100.00;98251.84;6269086;28;20659;-50
2023/12/15 00:16:26;;;;;;;3.87;3.47;;;;;;;5.04;100.00;98252.44;6266937;28;20214;-50
2023/12/15 00:19:28;;;;;;;3.17;2.77;;;;;;;5.00;100.00;98253.81;6267117;28;20190;-49
2023/12/15 00:22:30;;;;;;;3.93;3.43;;;;;;;4.97;100.00;98255.00;6269107;28;20197;-52
2023/12/15 00:25:32;;;;;;;2.77;2.53;;;;;;;4.95;100.00;98259.66;6266547;28;20683;-51
2023/12/15 00:28:35;;;;;;;3.67;2.97;;;;;;;4.91;100.00;98267.13;6265482;28;20822;-48
2023/12/15 00:31:37;;;;;;;8.43;3.23;;;;;;;4.89;100.00;98274.44;6268412;28;20201;-51
2023/12/15 00:34:39;;;;;;;3.67;3.07;;;;;;;4.84;100.00;98282.13;6268417;28;20188;-49
2023/12/15 00:37:41;;;;;;;4.50;4.10;;;;;;;4.97;100.00;98289.31;6267826;28;20207;-50
2023/12/15 00:40:43;;;;;;;4.03;3.63;;;;;;;5.24;100.00;98298.28;6267474;28;20654;-48
2023/12/15 00:43:45;;;;;;;4.20;3.80;;;;;;;5.13;100.00;98291.69;6268023;28;20627;-49
2023/12/15 00:46:47;;;;;;;5.37;3.93;;;;;;;5.16;100.00;98290.47;6266963;28;20193;-47
2023/12/15 00:49:49;;;;;;;4.47;3.30;;;;;;;5.10;100.00;98296.53;6266855;28;20579;-48
2023/12/15 00:52:52;;;;;;;3.43;3.13;;;;;;;5.02;100.00;98302.75;6266603;28;20719;-50
2023/12/15 00:55:54;;;;;;;3.47;2.77;;;;;;;4.99;100.00;98308.44;6267468;28;20208;-48
2023/12/15 00:58:56;;;;;;;3.07;2.77;;;;;;;4.92;100.00;98291.72;6267158;28;20679;-48
2023/12/15 01:01:58;;;;;;;3.17;2.87;;;;;;;4.20;100.00;98184.53;6267454;28;20325;-50
2023/12/15 01:05:00;;;;;;;3.37;2.73;;;;;;;4.97;100.00;98309.63;6267408;28;20189;-48
2023/12/15 01:08:02;;;;;;;3.03;2.43;;;;;;;4.92;100.00;98324.22;6266899;28;20724;-49
2023/12/15 01:11:05;;;;;;;2.93;2.60;;;;;;;4.70;100.00;98305.94;6267891;28;20232;-49
2023/12/15 01:14:07;;;;;;;3.10;2.70;;;;;;;4.89;100.00;98329.88;6267527;28;20192;-50
2023/12/15 01:17:09;;;;;;;2.43;2.23;;;;;;;4.88;100.00;98345.91;6265742;28;20720;-48
2023/12/15 01:20:13;;;;;;;3.33;2.20;;;;;;;4.83;100.00;98343.84;6264370;28;20205;-51
2023/12/15 01:23:15;;;;;;;2.50;2.30;;;;;;;4.80;100.00;98346.84;6267079;28;20197;-49
2023/12/15 01:26:18;;;;;;;2.47;1.90;;;;;;;4.80;100.00;98356.59;6267372;28;20193;-49
2023/12/15 01:29:20;;;;;;;2.17;1.97;;;;;;;4.78;100.00;98348.88;6266688;28;20268;-48
2023/12/15 01:32:22;;;;;;;2.60;2.33;;;;;;;4.84;100.00;98361.31;6266658;28;20684;-47
2023/12/15 01:35:24;;;;;;;2.40;2.00;;;;;;;4.76;100.00;98363.25;6263844;28;20288;-47
2023/12/15 01:38:26;;;;;;;2.40;2.20;;;;;;;4.72;100.00;98368.06;6266706;28;20215;-47
2023/12/15 01:41:31;;;;;;;2.23;2.03;;;;;;;4.73;100.00;98374.16;6266833;28;20195;-48
2023/12/15 01:44:33;;;;;;;2.47;2.27;;;;;;;4.66;100.00;98369.66;6265432;28;20191;-50
2023/12/15 01:47:36;;;;;;;2.17;1.97;;;;;;;4.66;100.00;98379.38;6266392;28;20192;-49
2023/12/15 01:50:38;;;;;;;2.20;2.00;;;;;;;4.86;100.00;98383.06;6264446;28;20282;-49
2023/12/15 01:53:42;;;;;;;2.40;2.20;;;;;;;4.84;100.00;98397.47;6266665;28;20220;-50
2023/12/15 01:56:45;;;;;;;2.73;2.30;;;;;;;4.74;100.00;98395.13;6263957;28;20207;-48
2023/12/15 01:59:49;;;;;;;2.40;2.20;;;;;;;4.65;100.00;98401.50;6266286;28;20195;-47
2023/12/15 02:02:51;;;;;;;2.27;2.00;;;;;;;4.37;100.00;98367.91;6266807;28;20674;-49
2023/12/15 02:05:53;;;;;;;2.60;2.20;;;;;;;4.59;100.00;98397.78;6266621;28;20269;-48
2023/12/15 02:08:55;;;;;;;3.27;2.37;;;;;;;4.69;100.00;98405.41;6265098;28;20666;-47
2023/12/15 02:11:57;;;;;;;2.40;2.10;;;;;;;4.61;100.00;98403.69;6266483;28;20223;-50
2023/12/15 02:15:00;;;;;;;2.50;2.30;;;;;;;4.57;100.00;98415.63;6255178;28;20210;-51
2023/12/15 02:18:03;;;;;;;2.43;2.20;;;;;;;4.58;100.00;98424.34;6266227;28;20246;-48
2023/12/15 02:21:05;;;;;;;3.07;2.77;;;;;;;4.66;100.00;98421.63;6254618;28;20274;-47
2023/12/15 02:24:07;;;;;;;2.50;2.30;;;;;;;4.61;100.00;98422.16;6264031;28;20195;-46
2023/12/15 02:27:09;;;;;;;3.20;2.77;;;;;;;4.56;100.00;98426.38;6265428;28;20852;-48
2023/12/15 02:30:12;;;;;;;3.10;2.80;;;;;;;4.57;100.00;98425.34;6248232;28;20580;-47
2023/12/15 02:33:14;;;;;;;4.33;2.60;;;;;;;4.49;100.00;98421.03;6247966;28;20197;-50
2023/12/15 02:36:21;;;;;;;3.43;3.13;;;;;;;4.48;100.00;98432.56;6266025;28;20744;-48
2023/12/15 02:39:23;;;;;;;3.20;2.90;;;;;;;4.63;100.00;98436.00;6248035;28;20914;-47
2023/12/15 02:42:25;;;;;;;4.03;3.50;;;;;;;4.54;100.00;98446.84;6266103;28;20558;-49
2023/12/15 02:45:27;;;;;;;4.03;3.63;;;;;;;4.47;100.00;98443.28;6265436;28;20200;-48
2023/12/15 02:48:29;;;;;;;4.00;3.50;;;;;;;4.44;100.00;98449.78;6269865;28;20193;-47
2023/12/15 02:51:31;;;;;;;3.70;3.17;;;;;;;4.41;100.00;98458.03;6269307;28;20534;-48
2023/12/15 02:54:34;;;;;;;3.83;3.17;;;;;;;4.19;100.00;98441.34;6270924;28;20203;-50
2023/12/15 02:57:36;;;;;;;4.17;3.37;;;;;;;4.27;100.00;98470.22;6249435;28;20674;-47
2023/12/15 03:00:39;;;;;;;4.57;3.40;;;;;;;4.25;100.00;98466.97;6270209;28;20253;-47
2023/12/15 03:03:41;;;;;;;3.53;3.23;;;;;;;4.23;100.00;98479.50;6270866;28;20530;-49
2023/12/15 03:06:43;;;;;;;4.03;3.37;;;;;;;4.19;100.00;98475.63;6270610;28;20187;-48
2023/12/15 03:09:46;;;;;;;5.07;3.20;;;;;;;4.20;100.00;98495.72;6270727;28;20220;-48
2023/12/15 03:12:48;;;;;;;3.93;3.53;;;;;;;4.17;100.00;98501.31;6270777;28;20306;-48
2023/12/15 03:15:51;;;;;;;3.30;3.00;;;;;;;4.27;100.00;98504.53;6268654;28;20724;-50
2023/12/15 03:18:53;;;;;;;3.20;3.00;;;;;;;4.35;96.71;98506.25;6268240;28;20215;-48
2023/12/15 03:21:55;;;;;;;2.73;2.50;;;;;;;4.23;97.58;98516.41;6269838;28;20193;-49
2023/12/15 03:24:57;;;;;;;2.70;2.30;;;;;;;4.09;98.01;98520.69;6270245;28;20225;-49
2023/12/15 03:28:00;;;;;;;2.30;1.90;;;;;;;4.35;92.57;98520.25;6270032;28;20551;-49
2023/12/15 03:31:02;;;;;;;3.43;2.40;;;;;;;4.14;92.41;98510.44;6251988;28;20213;-50
2023/12/15 03:34:04;;;;;;;2.77;2.00;;;;;;;4.10;95.03;98537.34;6268230;28;20659;-47
2023/12/15 03:37:06;;;;;;;2.37;2.10;;;;;;;3.96;95.44;98538.13;6269111;28;20669;-48
2023/12/15 03:40:09;;;;;;;2.57;2.10;;;;;;;3.92;92.92;98527.09;6269618;28;20202;-49
2023/12/15 03:43:11;;;;;;;2.20;2.00;;;;;;;4.09;93.06;98547.06;6270249;28;20531;-48
2023/12/15 03:46:13;;;;;;;2.70;2.17;;;;;;;3.95;93.71;98544.41;6266522;28;20210;-48
2023/12/15 03:49:15;;;;;;;4.23;2.33;;;;;;;3.97;93.92;98555.56;6269354;28;20678;-46
2023/12/15 03:52:17;;;;;;;2.87;2.40;;;;;;;3.91;95.55;98557.09;6268379;28;20207;-49
2023/12/15 03:55:19;;;;;;;2.37;2.13;;;;;;;3.85;95.34;98552.56;6269371;28;20242;-47
2023/12/15 03:58:21;;;;;;;2.23;2.03;;;;;;;3.80;96.30;98562.81;6267883;28;20682;-50
2023/12/15 04:01:23;;;;;;;2.53;2.00;;;;;;;3.75;97.30;98563.34;6270136;28;20203;-47
2023/12/15 04:04:26;;;;;;;3.47;2.33;;;;;;;3.75;97.26;98568.59;6270117;28;20195;-47
2023/12/15 04:07:28;;;;;;;2.67;2.47;;;;;;;3.80;96.80;98574.16;6266923;28;20194;-48
2023/12/15 04:10:30;;;;;;;2.87;2.17;;;;;;;3.75;97.48;98573.06;6268849;28;20242;-49
2023/12/15 04:13:33;;;;;;;1.97;1.77;;;;;;;3.82;96.30;98577.44;6269470;28;20249;-49
2023/12/15 04:16:35;;;;;;;2.50;2.30;;;;;;;3.81;96.19;98573.16;6269028;28;20244;-49
2023/12/15 04:19:37;;;;;;;3.17;2.30;;;;;;;3.75;97.57;98586.22;6267240;28;20211;-52
2023/12/15 04:22:39;;;;;;;2.47;2.20;;;;;;;3.63;97.20;98576.06;6268147;28;20196;-48
2023/12/15 04:25:41;;;;;;;2.23;2.03;;;;;;;3.72;98.37;98591.84;6267343;28;20336;-48
2023/12/15 04:28:44;;;;;;;3.47;2.43;;;;;;;3.67;98.20;98596.81;6268365;28;20196;-47
2023/12/15 04:31:46;;;;;;;2.50;2.23;;;;;;;3.67;99.27;98591.53;6268496;28;20663;-49
2023/12/15 04:34:48;;;;;;;3.03;2.63;;;;;;;3.67;98.72;98600.28;6268127;28;20536;-46
2023/12/15 04:37:50;;;;;;;2.90;2.40;;;;;;;3.59;99.34;98593.22;6268043;28;20256;-49
2023/12/15 04:40:52;;;;;;;2.97;2.60;;;;;;;3.61;100.00;98616.78;6250865;28;20256;-48
2023/12/15 04:43:55;;;;;;;3.53;2.70;;;;;;;3.65;100.00;98626.00;6248062;28;20238;-49
2023/12/15 04:46:57;;;;;;;3.83;3.17;;;;;;;3.76;99.95;98636.13;6267763;28;20193;-49
2023/12/15 04:49:59;;;;;;;3.30;3.00;;;;;;;3.54;100.00;98626.34;6267048;28;20194;-50
2023/12/15 04:53:02;;;;;;;3.60;3.30;;;;;;;3.59;100.00;98648.56;6265917;28;20253;-50
2023/12/15 04:56:04;;;;;;;3.87;3.03;;;;;;;3.57;100.00;98647.09;6267804;28;20204;-48
2023/12/15 04:59:06;;;;;;;4.10;3.53;;;;;;;3.52;100.00;98644.97;6249225;28;20212;-48
2023/12/15 05:02:09;;;;;;;5.13;3.87;;;;;;;3.55;100.00;98663.09;6266056;28;20202;-49
2023/12/15 05:05:12;;;;;;;4.23;3.70;;;;;;;3.52;100.00;98650.25;6250096;28;20195;-47
2023/12/15 05:08:14;;;;;;;4.60;3.60;;;;;;;3.52;100.00;98652.06;6267880;28;20306;-48
2023/12/15 05:11:18;;;;;;;4.53;3.97;;;;;;;3.50;100.00;98657.50;6245340;28;20735;-47
2023/12/15 05:14:20;;;;;;;7.13;4.90;;;;;;;3.53;100.00;98659.78;6240657;28;20298;-46
2023/12/15 05:17:22;;;;;;;5.47;4.83;;;;;;;3.55;100.00;98670.19;6242361;28;20753;-48
2023/12/15 05:20:27;;;;;;;6.93;4.63;;;;;;;3.53;100.00;98664.25;6240477;28;20202;-49
2023/12/15 05:23:30;;;;;;;5.63;4.77;;;;;;;3.52;100.00;98675.78;6242339;28;20300;-47
2023/12/15 05:26:32;;;;;;;5.27;4.50;;;;;;;3.50;100.00;98685.69;6240922;28;20207;-49
2023/12/15 05:29:36;;;;;;;5.07;4.23;;;;;;;3.50;100.00;98693.56;6242280;28;20282;-47
2023/12/15 05:32:39;;;;;;;4.73;4.10;;;;;;;3.39;100.00;98678.94;6242620;28;20199;-48
2023/12/15 05:35:41;;;;;;;6.70;5.40;;;;;;;3.53;100.00;98682.69;6241491;28;20195;-47
2023/12/15 05:38:43;;;;;;;5.87;5.13;;;;;;;3.63;100.00;98699.91;6242694;28;20243;-50
2023/12/15 05:41:46;;;;;;;5.27;4.60;;;;;;;3.54;100.00;98703.56;6240721;28;20540;-46
2023/12/15 05:44:48;;;;;;;4.93;4.43;;;;;;;3.26;100.00;98670.78;6242554;28;20207;-48
2023/12/15 05:47:50;;;;;;;4.90;4.40;;;;;;;3.48;100.00;98722.69;6241518;28;20199;-47
2023/12/15 05:50:52;;;;;;;6.10;4.97;;;;;;;3.48;100.00;98727.16;6241264;28;21350;-47
2023/12/15 05:53:54;;;;;;;6.17;4.20;;;;;;;3.45;100.00;98738.03;6242209;28;20199;-47
2023/12/15 05:56:59;;;;;;;5.63;4.73;;;;;;;3.46;100.00;98742.31;6241982;28;20322;-50
2023/12/15 06:00:02;;;;;;;5.97;4.23;;;;;;;3.50;100.00;98739.19;6241348;28;20200;-50
2023/12/15 06:03:05;;;;;;;4.50;4.10;;;;;;;3.47;100.00;98751.84;6238997;28;20218;-47
2023/12/15 06:06:11;;;;;;;4.67;4.27;;;;;;;3.43;100.00;98753.19;6241552;28;20202;-48
2023/12/15 06:09:14;;;;;;;4.67;4.20;;;;;;;3.41;100.00;98769.16;6241729;28;20195;-47
2023/12/15 06:12:16;;;;;;;5.43;4.70;;;;;;;3.39;100.00;98773.75;6259445;28;20243;-49
2023/12/15 06:15:18;;;;;;;5.87;5.27;;;;;;;3.31;100.00;98777.25;6266873;28;20200;-50
2023/12/15 06:18:20;;;;;;;6.40;5.37;;;;;;;3.15;100.00;98756.22;6266049;28;20560;-48
2023/12/15 06:21:26;;;;;;;5.87;5.23;;;;;;;3.26;100.00;98787.47;6264973;28;20205;-49
2023/12/15 06:24:28;;;;;;;6.20;4.77;;;;;;;3.18;100.00;98787.47;6269656;28;20199;-48
2023/12/15 06:27:31;;;;;;;6.07;5.07;;;;;;;3.14;100.00;98801.13;6269308;28;20732;-47
2023/12/15 06:30:36;;;;;;;6.00;4.97;;;;;;;3.09;100.00;98817.44;6253530;28;20293;-49
2023/12/15 06:33:39;;;;;;;6.47;5.20;;;;;;;2.98;100.00;98809.88;6267744;28;20234;-50
2023/12/15 06:36:41;;;;;;;6.17;5.30;;;;;;;2.93;100.00;98814.81;6250854;28;20204;-49
2023/12/15 06:39:47;;;;;;;8.93;6.57;;;;;;;2.88;100.00;98810.03;6270974;28;20357;-49
2023/12/15 06:42:49;;;;;;;8.90;6.67;;;;;;;2.90;100.00;98826.47;6269127;28;20202;-46
2023/12/15 06:45:51;;;;;;;13.40;9.40;;;;;;;2.87;100.00;98834.72;6270718;28;20201;-46
2023/12/15 06:48:53;;;;;;;7.17;5.60;;;;;;;3.01;100.00;98838.50;6270420;28;20221;-46
2023/12/15 06:51:59;;;;;;;6.80;5.30;;;;;;;2.96;100.00;98832.94;6270756;28;20213;-47
2023/12/15 06:55:02;;;;;;;6.37;5.60;;;;;;;3.02;100.00;98838.34;6270916;28;20657;-47
2023/12/15 06:58:04;;;;;;;6.00;5.20;;;;;;;3.05;100.00;98837.16;6270265;28;20215;-46
2023/12/15 07:01:07;;;;;;;7.20;5.60;;;;;;;3.09;100.00;98849.03;6270094;28;20214;-46
2023/12/15 07:04:09;;;;;;;7.20;5.67;;;;;;;3.15;100.00;98858.06;6270171;28;20217;-46
2023/12/15 07:07:11;;;;;;;7.57;6.03;;;;;;;2.86;100.00;98825.19;6252664;28;20200;-47
2023/12/15 07:10:13;;;;;;;11.50;7.27;;;;;;;3.04;100.00;98857.41;6269957;28;20710;-49
2023/12/15 07:13:16;;;;;;;8.23;6.13;;;;;;;3.15;100.00;98879.13;6269975;28;20195;-47
2023/12/15 07:16:18;;;;;;;6.83;5.20;;;;;;;3.11;100.00;98883.91;6270123;28;20197;-46
2023/12/15 07:19:20;;;;;;;7.40;5.63;;;;;;;3.06;100.00;98891.50;6268067;28;20215;-48
2023/12/15 07:22:22;;;;;;;6.60;5.17;;;;;;;3.07;100.00;98901.03;6252006;28;20814;-47
2023/12/15 07:25:24;;;;;;;6.23;4.50;;;;;;;3.05;100.00;98901.19;6269836;28;20205;-46
2023/12/15 07:28:26;;;;;;;5.97;4.83;;;;;;;3.09;100.00;98912.22;6267821;28;20193;-46
2023/12/15 07:31:29;;;;;;;5.40;4.17;;;;;;;3.04;100.00;98906.59;6269879;28;20203;-48
2023/12/15 07:34:31;;;;;;;5.80;4.57;;;;;;;3.03;100.00;98924.22;6267058;28;21008;-46
2023/12/15 07:37:33;;;;;;;4.83;4.10;;;;;;;3.06;100.00;98934.44;6269921;28;20205;-46
2023/12/15 07:40:36;;;;;;;5.13;3.80;;;;;;;3.00;100.00;98942.94;6268645;28;20203;-46
2023/12/15 07:43:38;;;;;;;5.97;4.13;;;;;;;3.05;100.00;98950.38;6269765;28;20247;-46
2023/12/15 07:47:00;;;;;;;4.83;3.97;;;;;;;3.01;100.00;98962.22;6267684;28;20191;-47
2023/12/15 07:50:02;;;;;;;5.53;4.20;;;;;;;2.99;100.00;98965.00;6268388;28;20232;-46
2023/12/15 07:53:04;;;;;;;5.03;4.43;;;;;;;2.93;100.00;98965.66;6268601;28;20193;-48
2023/12/15 07:56:07;;;;;;;5.00;4.13;;;;;;;2.92;100.00;98968.47;6269164;28;20292;-47
2023/12/15 07:59:10;;;;;;;6.27;4.70;;;;;;;2.85;100.00;98984.06;6268932;28;20200;-47
2023/12/15 08:02:12;;;;;;;6.03;4.30;;;;;;;2.83;100.00;98983.41;6268880;28;20202;-48
2023/12/15 08:05:14;;;;;;;5.37;4.70;;;;;;;2.81;100.00;98999.34;6268858;28;20194;-46
2023/12/15 08:08:16;;;;;;;8.27;4.90;;;;;;;2.77;100.00;99003.28;6268580;28;20702;-46
2023/12/15 08:11:19;;;;;;;5.53;4.70;;;;;;;2.77;100.00;99013.81;6268420;28;20246;-47
2023/12/15 08:14:22;;;;;;;5.80;4.57;;;;;;;2.79;100.00;99011.00;6269025;28;20209;-47
2023/12/15 08:17:25;;;;;;;6.60;4.60;;;;;;;2.79;100.00;99008.38;6268149;28;20195;-46
2023/12/15 08:20:28;;;;;;;4.77;4.23;;;;;;;2.80;100.00;99023.19;6264936;28;20230;-48
2023/12/15 08:23:30;;;;;;;6.40;5.10;;;;;;;2.78;100.00;99033.88;6268771;28;20205;-48
2023/12/15 08:26:33;;;;;;;4.80;4.23;;;;;;;2.77;100.00;99032.22;6268091;28;20756;-48
2023/12/15 08:29:35;;;;;;;5.93;4.77;;;;;;;2.78;100.00;99035.69;6268104;28;20229;-47
2023/12/15 08:32:38;;;;;;;5.93;5.33;;;;;;;2.78;100.00;99044.41;6268102;28;20209;-46
2023/12/15 08:35:40;;;;;;;6.20;5.27;;;;;;;2.73;100.00;99045.84;6268284;28;20189;-47
2023/12/15 08:38:42;;;;;;;8.50;5.47;;;;;;;2.70;100.00;99052.25;6267089;28;20290;-49
2023/12/15 08:41:44;;;;;;;7.57;5.53;;;;;;;2.65;100.00;99059.78;6267454;28;20669;-47
2023/12/15 08:44:46;;;;;;;6.70;4.87;;;;;;;2.54;100.00;99057.44;6266434;28;20188;-46
2023/12/15 08:47:49;;;;;;;5.60;4.40;;;;;;;2.40;100.00;99071.97;6267608;28;20206;-46
2023/12/15 08:50:53;;;;;;;5.60;4.77;;;;;;;2.28;100.00;99081.13;6267664;28;20564;-45
2023/12/15 08:53:55;;;;;;;5.33;4.10;;;;;;;2.19;100.00;99089.94;6267483;28;20875;-47
2023/12/15 08:56:57;;;;;;;5.60;3.93;;;;;;;2.19;100.00;99085.50;6268064;28;20208;-47
2023/12/15 09:00:00;;;;;;;5.17;4.10;;;;;;;2.23;100.00;99092.09;6267339;28;20583;-46
2023/12/15 09:03:02;;;;;;;4.90;3.93;;;;;;;2.15;100.00;99091.22;6267788;28;20207;-45
2023/12/15 09:06:10;;;;;;;5.33;3.93;;;;;;;2.15;100.00;99101.72;6265778;28;20208;-47
2023/12/15 09:09:29;;;;;;;5.33;4.00;;;;;;;2.09;100.00;99111.06;6265341;28;20282;-46
2023/12/15 09:12:31;;;;;;;5.47;3.97;;;;;;;2.06;100.00;99109.53;6267301;28;20238;-49
2023/12/15 09:15:33;;;;;;;5.83;5.17;;;;;;;2.13;100.00;99109.78;6267164;28;20197;-46
2023/12/15 09:18:35;;;;;;;6.10;5.07;;;;;;;2.17;100.00;99126.03;6263540;28;20217;-47
2023/12/15 09:21:38;;;;;;;6.03;4.60;;;;;;;2.19;100.00;99124.94;6265636;28;20212;-45
2023/12/15 09:24:40;;;;;;;5.17;4.37;;;;;;;2.21;100.00;99124.75;6266977;28;20189;-46
2023/12/15 09:27:42;;;;;;;7.03;4.77;;;;;;;2.24;100.00;99129.72;6267199;28;20199;-45
2023/12/15 09:30:44;;;;;;;5.57;4.93;;;;;;;2.17;100.00;99121.63;6266541;28;20197;-46
2023/12/15 09:33:46;;;;;;;4.73;4.23;;;;;;;2.25;100.00;99128.75;6266108;28;20223;-49
2023/12/15 09:36:49;;;;;;;5.17;4.30;;;;;;;2.18;100.00;99128.53;6266283;28;20195;-47
2023/12/15 09:39:51;;;;;;;4.73;4.03;;;;;;;2.28;100.00;99141.59;6265136;28;20210;-47
2023/12/15 09:42:53;;;;;;;6.17;4.60;;;;;;;2.30;100.00;99137.00;6266533;28;20204;-46
2023/12/15 09:45:58;;;;;;;5.63;4.37;;;;;;;2.23;100.00;99131.53;6264825;28;20679;-46
2023/12/15 09:49:02;;;;;;;4.87;4.07;;;;;;;2.32;100.00;99151.66;6267008;28;20205;-46
2023/12/15 09:52:07;;;;;;;4.67;3.90;;;;;;;2.35;100.00;99150.50;6265855;28;20193;-49
2023/12/15 09:55:10;;;;;;;6.40;4.93;;;;;;;2.35;100.00;99155.78;6246774;28;20189;-45
2023/12/15 09:58:12;;;;;;;5.37;4.10;;;;;;;2.23;100.00;99130.72;6266172;28;20208;-46
2023/12/15 10:01:14;;;;;;;4.90;4.40;;;;;;;2.35;100.00;99147.88;6266256;28;20738;-48
2023/12/15 10:04:17;;;;;;;4.33;3.60;;;;;;;2.36;100.00;99151.34;6266854;28;20202;-47
2023/12/15 10:07:19;;;;;;;4.90;4.10;;;;;;;2.38;100.00;99144.13;6248352;28;20684;-46
2023/12/15 10:10:23;;;;;;;4.10;3.70;;;;;;;2.43;100.00;99149.75;6265765;28;20198;-47
2023/12/15 10:13:26;;;;;;;6.13;4.73;;;;;;;2.43;100.00;99162.91;6266690;28;20723;-47
2023/12/15 10:16:28;;;;;;;4.40;3.57;;;;;;;2.41;100.00;99155.16;6266097;28;20197;-47
2023/12/15 10:19:30;;;;;;;5.23;3.90;;;;;;;2.43;100.00;99158.47;6263682;28;20581;-49
2023/12/15 10:22:35;;;;;;;4.97;4.13;;;;;;;2.46;100.00;99165.22;6265661;28;20245;-49
2023/12/15 10:25:37;;;;;;;4.93;4.27;;;;;;;2.54;100.00;99160.03;6264424;28;20285;-47
2023/12/15 10:28:40;;;;;;;5.20;4.13;;;;;;;2.48;100.00;99160.66;6266260;28;20569;-46
2023/12/15 10:31:42;;;;;;;4.80;4.03;;;;;;;2.51;100.00;99162.94;6265080;28;20561;-47
2023/12/15 10:34:46;;;;;;;5.97;4.93;;;;;;;2.52;100.00;99157.56;6266832;28;20199;-48
2023/12/15 10:37:49;;;;;;;5.13;4.40;;;;;;;2.52;100.00;99178.59;6266694;28;20545;-45
2023/12/15 10:40:51;;;;;;;5.20;4.57;;;;;;;2.54;100.00;99179.25;6266536;28;20221;-46
2023/12/15 10:43:54;;;;;;;5.00;4.47;;;;;;;2.58;100.00;99187.69;6262475;28;20212;-47
2023/12/15 10:46:58;;;;;;;4.40;4.00;;;;;;;2.25;100.00;99136.63;6266029;28;20190;-46
2023/12/15 10:50:02;;;;;;;4.83;4.10;;;;;;;2.61;100.00;99189.16;6249866;28;20197;-45
2023/12/15 10:53:05;;;;;;;4.80;4.30;;;;;;;2.50;100.00;99184.97;6266563;28;20212;-46
2023/12/15 10:56:07;;;;;;;4.80;4.30;;;;;;;2.45;100.00;99184.59;6231649;28;20616;-47
2023/12/15 10:59:10;;;;;;;4.23;3.67;;;;;;;2.44;100.00;99185.59;6264297;28;20215;-46
2023/12/15 11:02:13;;;;;;;6.67;4.70;;;;;;;2.52;100.00;99199.66;6264139;28;20185;-46
2023/12/15 11:05:16;;;;;;;4.20;3.80;;;;;;;2.54;100.00;99200.31;6266171;28;20194;-46
2023/12/15 11:08:31;;;;;;;5.40;4.00;;;;;;;2.54;100.00;99202.94;6266762;28;20213;-45
2023/12/15 11:11:33;;;;;;;5.00;4.13;;;;;;;2.56;100.00;99205.41;6270358;28;20308;-48
2023/12/15 11:14:35;;;;;;;5.93;4.87;;;;;;;2.70;100.00;99212.75;6270655;28;20193;-45
2023/12/15 11:17:41;;;;;;;4.73;4.17;;;;;;;2.78;100.00;99206.72;6270075;28;20623;-45
2023/12/15 11:20:44;;;;;;;5.33;4.30;;;;;;;2.72;100.00;99208.16;6250087;28;20216;-46
2023/12/15 11:23:56;;;;;;;4.47;3.93;;;;;;;2.74;100.00;99197.47;6268548;28;20233;-47
2023/12/15 11:26:58;;;;;;;5.77;4.47;;;;;;;2.73;100.00;99215.09;6269587;28;20574;-48
2023/12/15 11:30:27;;;;;;;5.13;4.23;;;;;;;2.72;100.00;99205.53;6251791;28;20248;-47
2023/12/15 11:33:29;;;;;;;5.17;4.47;;;;;;;2.83;100.00;99207.09;6268644;28;20205;-46
2023/12/15 11:36:42;;;;;;;4.97;4.30;;;;;;;2.82;100.00;99214.16;6270214;28;20677;-46
2023/12/15 11:39:46;;;;;;;4.57;3.87;;;;;;;2.80;100.00;99226.63;6268900;28;20633;-46
2023/12/15 11:42:51;;;;;;;4.87;3.57;;;;;;;2.80;100.00;99229.25;6269696;28;20211;-47
2023/12/15 11:45:54;;;;;;;4.70;3.97;;;;;;;2.76;100.00;99227.94;6268594;28;20198;-47
2023/12/15 11:48:56;;;;;;;4.30;3.47;;;;;;;2.73;100.00;99237.94;6268705;28;20683;-48
2023/12/15 11:51:58;;;;;;;3.90;3.30;;;;;;;2.66;100.00;99236.88;6269608;28;20677;-47
2023/12/15 11:55:00;;;;;;;4.83;4.20;;;;;;;2.58;100.00;99240.28;6269554;28;20203;-47
2023/12/15 11:58:02;;;;;;;4.50;4.10;;;;;;;2.50;100.00;99237.59;6268967;28;20201;-46
2023/12/15 12:01:05;;;;;;;5.47;3.63;;;;;;;2.39;100.00;99230.75;6269004;28;20214;-46
2023/12/15 12:04:18;;;;;;;4.03;3.60;;;;;;;2.29;100.00;99220.31;6269190;28;20260;-48
2023/12/15 12:07:20;;;;;;;3.93;3.57;;;;;;;2.46;100.00;99241.50;6266949;28;20216;-46
2023/12/15 12:10:30;;;;;;;4.10;3.50;;;;;;;2.45;100.00;99245.09;6267879;28;20568;-48
2023/12/15 12:13:34;;;;;;;4.17;3.37;;;;;;;2.38;100.00;99244.06;6269036;28;20755;-45
2023/12/15 12:16:37;;;;;;;5.00;3.97;;;;;;;2.34;100.00;99243.53;6268487;28;20201;-46
2023/12/15 12:19:41;;;;;;;4.50;4.10;;;;;;;2.36;100.00;99256.53;6266541;28;20262;-48
2023/12/15 12:22:45;;;;;;;4.10;3.70;;;;;;;2.36;100.00;99253.91;6268309;28;20189;-47
2023/12/15 12:25:47;;;;;;;5.63;4.60;;;;;;;2.42;100.00;99250.69;6268506;28;20189;-46
2023/12/15 12:28:53;;;;;;;5.27;4.53;;;;;;;2.41;100.00;99257.72;6266157;28;20244;-47
2023/12/15 12:31:55;;;;;;;7.13;4.23;;;;;;;2.42;100.00;99263.84;6267610;28;20204;-47
2023/12/15 12:34:58;;;;;;;5.07;4.00;;;;;;;2.43;100.00;99265.47;6268085;28;20672;-46
2023/12/15 12:38:00;;;;;;;5.27;4.50;;;;;;;2.43;100.00;99262.84;6267885;28;20670;-46
2023/12/15 12:41:06;;;;;;;6.30;4.70;;;;;;;2.31;100.00;99255.16;6268276;28;20211;-47
2023/12/15 12:44:08;;;;;;;5.80;4.33;;;;;;;2.11;100.00;99221.28;6264418;28;20197;-47
2023/12/15 12:47:10;;;;;;;4.47;4.07;;;;;;;2.44;100.00;99280.28;6267861;28;20692;-47
2023/12/15 12:50:12;;;;;;;5.37;4.20;;;;;;;2.45;100.00;99274.03;6268294;28;20198;-46
2023/12/15 12:53:15;;;;;;;4.80;4.30;;;;;;;2.46;100.00;99280.94;6267900;28;20209;-45
2023/12/15 12:56:17;;;;;;;5.50;4.70;;;;;;;2.34;100.00;99248.78;6267769;28;20204;-46
2023/12/15 12:59:20;;;;;;;5.37;4.77;;;;;;;2.50;100.00;99290.19;6267219;28;20220;-48
2023/12/15 13:02:23;;;;;;;7.97;5.53;;;;;;;2.56;100.00;99279.06;6267615;28;20268;-46
2023/12/15 13:05:25;;;;;;;6.47;5.40;;;;;;;2.60;100.00;99277.78;6267677;28;20197;-47
2023/12/15 13:08:27;;;;;;;8.37;5.53;;;;;;;2.58;100.00;99285.00;6267495;28;20195;-46
2023/12/15 13:11:30;;;;;;;7.57;5.93;;;;;;;2.59;100.00;99292.75;6266926;28;20609;-46
2023/12/15 13:14:32;;;;;;;6.97;5.03;;;;;;;2.63;100.00;99295.91;6268188;28;20221;-46
2023/12/15 13:17:34;;;;;;;5.87;4.53;;;;;;;2.67;100.00;99301.69;6267287;28;20567;-46
2023/12/15 13:20:38;;;;;;;4.00;3.33;;;;;;;2.70;100.00;99306.66;6262324;28;20221;-48
2023/12/15 13:23:41;;;;;;;2.90;2.60;;;;;;;2.78;100.00;99304.09;6267192;28;20201;-46
2023/12/15 13:26:43;;;;;;;3.77;3.07;;;;;;;2.58;100.00;99287.66;6267052;28;20327;-46
2023/12/15 13:29:46;;;;;;;3.00;2.53;;;;;;;2.65;100.00;99319.44;6267102;28;20200;-46
2023/12/15 13:32:49;;;;;;;3.50;2.33;;;;;;;2.78;100.00;99309.34;6266961;28;20210;-46
2023/12/15 13:35:51;;;;;;;4.27;2.23;;;;;;;2.63;100.00;99311.69;6265788;28;20189;-46
2023/12/15 13:39:12;;;;;;;3.53;2.53;;;;;;;2.44;100.00;99320.56;6267291;28;20800;-45
2023/12/15 13:42:14;;;;;;;2.87;2.60;;;;;;;2.38;100.00;99318.53;6266677;28;20203;-47
2023/12/15 13:45:18;;;;;;;3.03;2.53;;;;;;;2.33;100.00;99326.03;6266223;28;20191;-46
2023/12/15 13:48:20;;;;;;;4.43;2.87;;;;;;;2.50;100.00;99314.69;6267247;28;20339;-46
2023/12/15 13:51:23;;;;;;;4.10;2.43;;;;;;;2.56;100.00;99323.78;6267179;28;20203;-51
2023/12/15 13:54:25;;;;;;;3.23;2.70;;;;;;;2.44;100.00;99327.63;6267796;28;20219;-46
2023/12/15 13:57:28;;;;;;;3.43;2.53;;;;;;;2.33;100.00;99321.59;6248938;28;20207;-47
2023/12/15 14:00:30;;;;;;;2.73;2.53;;;;;;;2.35;100.00;99325.88;6264387;28;20663;-46
2023/12/15 14:03:32;;;;;;;3.97;3.03;;;;;;;2.37;100.00;99322.13;6266436;28;20667;-47
2023/12/15 14:06:34;;;;;;;3.00;2.63;;;;;;;2.01;100.00;99302.84;6265331;28;20648;-47
2023/12/15 14:09:37;;;;;;;3.60;2.90;;;;;;;2.10;100.00;99333.50;6248686;28;20675;-46
2023/12/15 14:12:39;;;;;;;2.90;2.60;;;;;;;2.03;100.00;99340.34;6263432;28;20236;-45
2023/12/15 14:15:42;;;;;;;5.73;3.10;;;;;;;1.98;100.00;99346.03;6266346;28;20189;-45
2023/12/15 14:18:44;;;;;;;5.70;2.90;;;;;;;1.68;100.00;99352.38;6263110;28;20201;-46
2023/12/15 14:21:47;;;;;;;3.77;2.70;;;;;;;1.56;100.00;99353.50;6265778;28;20208;-47